»·PEaware :: UAL401 KRNO-KSEA

UAL401 :: KRNO-KSEA

FLIGHT INFORMATION

Flight Status: Arrived
Operator:
United Airlines
More flights by this operator :: More flights under this callsign
Pilot: Colin A. (19898)
Aircraft: MCDONNELL-DOUGLAS MD-82
(MD82)
More flights by this aircraft type
Origin: KRNO Reno/Tahoe Intl
United States
Destination: KSEA Seattle-Tacoma Intl
United States
More flights between these airports :: More routes between these airports
Route: ZEFFR6 BLKJK WNDEL LKV HAWKZ7
File this flight plan on PilotEdge
Remarks: PBN / A1B2 DOF / 181123 REG / N882SB EET / KZSE0025 OPR / UAL PER / C RMK / TCAS SIMBRIEF
Altitude:
(Current/Filed)
34,000ft
Speed:
(Current/Filed)
438kts
Departed: 23-Nov-18 04:58 PM
Arrived: 23-Nov-18 06:54 PM
Distance/Time
Traveled:
489nm/1:56
Distance/Time
To Go:
Arrived

Flight Plot

Page will automatically refresh every two minutes.

Flight plan parsing failed; only flown route is shown


Map Options




Map Legend


Flown Route
Filed Route
Departure Airport
Arrival Airport
Navaid (VOR, NDB)
Fix

Horizontal Profiles

Position Reports

Time Latitude Longitude Heading Altitude Ground
Speed
23-Nov-18 16:16 39.507881 -119.774398 180 4424ft 0kts
23-Nov-18 16:17 39.507881 -119.774398 180 4424ft 0kts
23-Nov-18 16:18 39.507881 -119.774398 180 4424ft 0kts
23-Nov-18 16:19 39.507881 -119.774398 180 4424ft 0kts
23-Nov-18 16:20 39.507881 -119.774398 180 4424ft 0kts
23-Nov-18 16:21 39.507881 -119.774398 180 4424ft 0kts
23-Nov-18 16:22 39.507881 -119.774398 180 4424ft 0kts
23-Nov-18 16:23 39.507881 -119.774398 180 4424ft 0kts
23-Nov-18 16:24 39.507881 -119.774398 180 4424ft 0kts
23-Nov-18 16:25 39.507881 -119.774398 180 4424ft 0kts
23-Nov-18 16:26 39.507881 -119.774398 180 4424ft 0kts
23-Nov-18 16:27 39.507881 -119.774398 180 4424ft 0kts
23-Nov-18 16:28 39.507881 -119.774398 180 4424ft 0kts
23-Nov-18 16:29 39.507881 -119.774398 180 4424ft 0kts
23-Nov-18 16:30 39.507881 -119.774398 180 4424ft 0kts
23-Nov-18 16:31 39.507881 -119.774398 180 4424ft 0kts
23-Nov-18 16:32 39.507881 -119.774398 180 4424ft 0kts
23-Nov-18 16:33 39.507881 -119.774398 180 4424ft 0kts
23-Nov-18 16:34 39.507881 -119.774398 180 4424ft 0kts
23-Nov-18 16:35 39.507881 -119.774398 180 4424ft 0kts
23-Nov-18 16:36 39.507881 -119.774398 180 4424ft 0kts
23-Nov-18 16:37 39.507881 -119.774398 180 4424ft 0kts
23-Nov-18 16:38 39.507881 -119.774398 180 4424ft 0kts
23-Nov-18 16:39 39.507881 -119.774398 180 4424ft 0kts
23-Nov-18 16:40 39.507881 -119.774398 180 4424ft 0kts
23-Nov-18 16:41 39.507881 -119.774398 180 4424ft 0kts
23-Nov-18 16:42 39.507881 -119.774398 180 4424ft 0kts
23-Nov-18 16:43 39.507881 -119.774398 180 4424ft 0kts
23-Nov-18 16:44 39.507881 -119.774398 180 4424ft 0kts
23-Nov-18 16:45 39.507881 -119.774398 180 4424ft 0kts
23-Nov-18 16:46 39.507881 -119.774398 180 4424ft 0kts
23-Nov-18 16:47 39.507881 -119.774398 180 4424ft 0kts
23-Nov-18 16:48 39.507881 -119.774398 180 4424ft 0kts
23-Nov-18 16:49 39.507881 -119.774398 180 4424ft 0kts
23-Nov-18 16:50 39.507881 -119.774398 180 4424ft 0kts
23-Nov-18 16:51 39.507881 -119.774398 180 4424ft 0kts
23-Nov-18 16:52 39.507881 -119.774398 180 4424ft 0kts
23-Nov-18 16:53 39.507881 -119.774398 180 4424ft 0kts
23-Nov-18 16:54 39.508266 -119.774395 181 4424ft 1kts
23-Nov-18 16:55 39.508310 -119.774396 191 4424ft 0kts
23-Nov-18 16:56 39.508310 -119.774396 191 4424ft 0kts
23-Nov-18 16:57 39.508309 -119.774396 191 4424ft 0kts
23-Nov-18 16:58 39.508212 -119.774308 128 4424ft 3kts
23-Nov-18 16:59 39.510311 -119.771589 0 4424ft 18kts
23-Nov-18 17:00 39.513568 -119.770328 93 4424ft 10kts
23-Nov-18 17:01 39.494302 -119.769314 179 4434ft 173kts
23-Nov-18 17:02 39.432141 -119.768102 179 6422ft 276kts
23-Nov-18 17:03 39.354324 -119.766284 179 8436ft 283kts
23-Nov-18 17:04 39.282018 -119.736904 121 10269ft 298kts
23-Nov-18 17:05 39.295063 -119.637848 56 11840ft 303kts
23-Nov-18 17:06 39.341131 -119.538609 52 13063ft 336kts
23-Nov-18 17:07 39.401827 -119.445831 37 14909ft 341kts
23-Nov-18 17:08 39.472910 -119.362953 35 17258ft 340kts
23-Nov-18 17:09 39.552534 -119.354076 319 19864ft 313kts
23-Nov-18 17:10 39.610632 -119.446387 315 20802ft 340kts
23-Nov-18 17:11 39.680504 -119.526851 322 22180ft 344kts
23-Nov-18 17:12 39.755428 -119.606558 321 23447ft 349kts
23-Nov-18 17:13 39.830505 -119.688004 321 24630ft 353kts
23-Nov-18 17:14 39.906110 -119.770577 321 25758ft 357kts
23-Nov-18 17:15 39.982446 -119.854195 321 26787ft 360kts
23-Nov-18 17:16 40.059313 -119.938793 321 27784ft 363kts
23-Nov-18 17:17 40.136617 -120.024399 320 28694ft 366kts
23-Nov-18 17:18 40.215514 -120.109858 321 29478ft 369kts
23-Nov-18 17:19 40.293445 -120.196505 320 30430ft 366kts
23-Nov-18 17:20 40.370827 -120.282787 322 31298ft 363kts
23-Nov-18 17:21 40.468308 -120.315275 349 32065ft 368kts
23-Nov-18 17:22 40.570461 -120.324616 350 32862ft 367kts
23-Nov-18 17:23 40.671766 -120.332701 350 33658ft 363kts
23-Nov-18 17:24 40.772968 -120.341682 349 33944ft 370kts
23-Nov-18 17:25 40.875404 -120.351155 350 33953ft 367kts
23-Nov-18 17:26 40.977387 -120.359887 349 33962ft 366kts
23-Nov-18 17:27 41.079181 -120.368695 349 33974ft 367kts
23-Nov-18 17:28 41.181071 -120.377153 349 33982ft 365kts
23-Nov-18 17:29 41.282205 -120.386361 349 33989ft 365kts
23-Nov-18 17:30 41.383777 -120.395228 349 33993ft 363kts
23-Nov-18 17:31 41.484505 -120.404340 349 33994ft 363kts
23-Nov-18 17:32 41.585527 -120.413730 348 33994ft 363kts
23-Nov-18 17:33 41.686028 -120.423305 348 33991ft 362kts
23-Nov-18 17:34 41.786296 -120.432029 348 33985ft 362kts
23-Nov-18 17:35 41.886716 -120.441146 348 33978ft 361kts
23-Nov-18 17:36 41.987008 -120.450577 348 33971ft 360kts
23-Nov-18 17:37 42.086609 -120.460293 348 33967ft 357kts
23-Nov-18 17:38 42.185933 -120.469007 348 33966ft 358kts
23-Nov-18 17:39 42.285477 -120.478024 348 33966ft 358kts
23-Nov-18 17:40 42.385066 -120.487441 348 33965ft 358kts
23-Nov-18 17:41 42.484459 -120.497070 348 33964ft 358kts
23-Nov-18 17:42 42.575092 -120.540844 330 33963ft 346kts
23-Nov-18 17:43 42.661866 -120.597866 331 33959ft 345kts
23-Nov-18 17:44 42.749469 -120.651365 332 33957ft 346kts
23-Nov-18 17:45 42.837189 -120.704674 332 33955ft 345kts
23-Nov-18 17:46 42.924857 -120.757990 332 33952ft 344kts
23-Nov-18 17:47 43.012510 -120.811245 332 33950ft 344kts
23-Nov-18 17:48 43.098885 -120.864064 332 33948ft 343kts
23-Nov-18 17:49 43.186022 -120.918498 332 33946ft 342kts
23-Nov-18 17:50 43.272380 -120.972163 332 33945ft 342kts
23-Nov-18 17:51 43.359482 -121.025725 332 33944ft 342kts
23-Nov-18 17:52 43.446088 -121.079301 332 33943ft 340kts
23-Nov-18 17:53 43.532410 -121.133213 332 33943ft 341kts
23-Nov-18 17:54 43.618525 -121.187394 332 33946ft 340kts
23-Nov-18 17:55 43.705325 -121.240567 332 33955ft 340kts
23-Nov-18 17:56 43.791482 -121.294931 333 33953ft 341kts
23-Nov-18 17:57 43.877132 -121.349594 331 33950ft 339kts
23-Nov-18 17:58 43.962693 -121.404912 332 33949ft 339kts
23-Nov-18 17:59 44.048673 -121.459263 332 33948ft 337kts
23-Nov-18 18:00 44.133703 -121.513635 332 33945ft 337kts
23-Nov-18 18:01 44.218919 -121.568180 332 33945ft 337kts
23-Nov-18 18:02 44.304193 -121.622624 332 33955ft 337kts
23-Nov-18 18:03 44.389128 -121.677272 332 33932ft 337kts
23-Nov-18 18:04 44.473882 -121.731906 332 32548ft 328kts
23-Nov-18 18:05 44.555648 -121.784675 332 31047ft 318kts
23-Nov-18 18:06 44.635136 -121.835335 332 29543ft 309kts
23-Nov-18 18:07 44.712234 -121.885269 332 28045ft 302kts
23-Nov-18 18:08 44.787698 -121.934519 332 26544ft 296kts
23-Nov-18 18:09 44.861581 -121.982577 332 25042ft 289kts
23-Nov-18 18:10 44.933639 -122.030446 332 23992ft 283kts
23-Nov-18 18:11 45.004917 -122.078291 332 23990ft 284kts
23-Nov-18 18:12 45.076474 -122.125355 332 23995ft 283kts
23-Nov-18 18:13 45.147712 -122.172295 332 24000ft 282kts
23-Nov-18 18:14 45.218446 -122.219193 332 24005ft 280kts
23-Nov-18 18:15 45.288942 -122.266060 332 24015ft 279kts
23-Nov-18 18:16 45.359695 -122.312254 331 24020ft 282kts
23-Nov-18 18:17 45.431196 -122.361219 332 24022ft 285kts
23-Nov-18 18:18 45.502968 -122.409732 332 24025ft 285kts
23-Nov-18 18:19 45.574726 -122.458128 332 24024ft 284kts
23-Nov-18 18:20 45.646098 -122.506212 332 24014ft 284kts
23-Nov-18 18:21 45.717796 -122.554489 332 24012ft 284kts
23-Nov-18 18:22 45.793881 -122.587269 344 24009ft 289kts
23-Nov-18 18:23 45.873298 -122.605970 344 24008ft 290kts
23-Nov-18 18:24 45.953021 -122.624987 344 24017ft 290kts
23-Nov-18 18:25 46.032414 -122.644569 344 24020ft 289kts
23-Nov-18 18:26 46.112051 -122.662713 346 24022ft 291kts
23-Nov-18 18:27 46.192356 -122.679062 346 24023ft 291kts
23-Nov-18 18:28 46.272665 -122.695560 346 24025ft 292kts
23-Nov-18 18:29 46.353949 -122.706638 351 24026ft 296kts
23-Nov-18 18:30 46.436616 -122.709054 352 24028ft 297kts
23-Nov-18 18:31 46.519382 -122.711332 352 24030ft 298kts
23-Nov-18 18:32 46.602298 -122.714126 351 23698ft 300kts
23-Nov-18 18:33 46.684189 -122.717411 352 21735ft 290kts
23-Nov-18 18:34 46.764818 -122.722291 352 19422ft 291kts
23-Nov-18 18:35 46.840985 -122.672899 29 16939ft 328kts
23-Nov-18 18:36 46.910130 -122.589896 30 16202ft 291kts
23-Nov-18 18:37 46.975950 -122.533039 12 14415ft 267kts
23-Nov-18 18:38 47.045525 -122.503975 11 13295ft 267kts
23-Nov-18 18:39 47.117823 -122.481448 4 11601ft 267kts
23-Nov-18 18:40 47.190413 -122.470946 4 10834ft 253kts
23-Nov-18 18:41 47.260378 -122.461817 4 10125ft 253kts
23-Nov-18 18:42 47.331216 -122.452351 4 8621ft 244kts
23-Nov-18 18:43 47.398758 -122.449210 358 7775ft 241kts
23-Nov-18 18:44 47.465041 -122.450500 359 6232ft 233kts
23-Nov-18 18:45 47.526304 -122.450734 0 5998ft 217kts
23-Nov-18 18:46 47.586778 -122.448322 1 5993ft 217kts
23-Nov-18 18:47 47.648042 -122.445723 1 4879ft 221kts
23-Nov-18 18:48 47.709765 -122.442636 359 3393ft 222kts
23-Nov-18 18:49 47.769012 -122.428160 44 2074ft 218kts
23-Nov-18 18:50 47.764523 -122.342023 107 1995ft 220kts
23-Nov-18 18:51 47.717846 -122.305689 208 2019ft 217kts
23-Nov-18 18:52 47.657409 -122.310032 177 1998ft 218kts
23-Nov-18 18:53 47.595965 -122.308832 184 1992ft 218kts
23-Nov-18 18:54 47.535211 -122.310341 181 1890ft 200kts
23-Nov-18 18:55 47.485396 -122.310578 181 906ft 160kts
23-Nov-18 18:56 47.447833 -122.311232 177 442ft 56kts
23-Nov-18 18:57 47.444129 -122.309076 146 442ft 11kts
23-Nov-18 18:58 47.439916 -122.305535 96 442ft 17kts
23-Nov-18 18:59 47.440805 -122.300579 45 442ft 5kts
23-Nov-18 19:00 47.440878 -122.300466 46 442ft 0kts
23-Nov-18 19:01 47.440878 -122.300465 46 442ft 0kts
23-Nov-18 19:02 47.440878 -122.300465 46 442ft 0kts

Navigation Log

Ident Type
Flight plan parsing failed, navigation log unavailable